createdAt,value
2022-08-23T00:02:06.835Z,100132.97
2022-08-23T00:04:40.457Z,100131.31
2022-08-23T00:07:28.193Z,100133.19
2022-08-23T00:09:57.184Z,100147.31
2022-08-23T00:12:26.604Z,100149.09
2022-08-23T00:14:55.205Z,100146.34
2022-08-23T00:17:34.066Z,100140.91
2022-08-23T00:20:13.494Z,100146.94
2022-08-23T00:22:41.119Z,100153.88
2022-08-23T00:25:10.198Z,100149.47
2022-08-23T00:27:37.987Z,100150.06
2022-08-23T00:30:08.414Z,100141.06
2022-08-23T00:32:36.934Z,100139.09
2022-08-23T00:35:04.974Z,100146.97
2022-08-23T00:37:33.905Z,100147.84
2022-08-23T00:40:01.531Z,100136.47
2022-08-23T00:43:09.767Z,100141.91
2022-08-23T00:46:00.694Z,100130.53
2022-08-23T00:48:27.932Z,100133.31
2022-08-23T00:51:06.331Z,100129.00
2022-08-23T00:53:38.118Z,100129.94
2022-08-23T00:56:07.223Z,100128.16
2022-08-23T00:58:34.119Z,100123.78
2022-08-23T01:01:02.331Z,100121.34
2022-08-23T01:03:38.525Z,100129.34
2022-08-23T01:06:06.348Z,100117.84
2022-08-23T01:08:34.975Z,100123.09
2022-08-23T01:11:14.497Z,100121.34
2022-08-23T01:13:47.447Z,100116.91
2022-08-23T01:16:36.993Z,100114.28
2022-08-23T01:19:08.634Z,100114.28
2022-08-23T01:21:50.422Z,100109.81
2022-08-23T01:24:59.844Z,100114.25
2022-08-23T01:27:11.057Z,100113.56
2022-08-23T01:29:38.188Z,100110.28
2022-08-23T01:32:05.337Z,100113.88
2022-08-23T01:34:32.416Z,100115.66
2022-08-23T01:37:05.828Z,100113.03
2022-08-23T01:39:34.208Z,100115.66
2022-08-23T01:42:02.705Z,100118.38
2022-08-23T01:44:35.454Z,100125.53
2022-08-23T01:47:02.646Z,100130.03
2022-08-23T01:49:30.044Z,100127.47
2022-08-23T01:51:57.128Z,100136.28
2022-08-23T01:54:24.658Z,100140.59
2022-08-23T01:56:51.619Z,100134.38
2022-08-23T01:59:18.727Z,100131.81
2022-08-23T02:01:51.645Z,100128.34
2022-08-23T02:04:18.847Z,100127.47
2022-08-23T02:06:46.457Z,100125.72
2022-08-23T02:09:18.271Z,100124.03
2022-08-23T02:11:47.466Z,100122.25
2022-08-23T02:14:18.736Z,100123.16
2022-08-23T02:17:04.469Z,100128.38
2022-08-23T02:19:36.493Z,100130.97
2022-08-23T02:22:04.624Z,100130.13
2022-08-23T02:24:31.811Z,100135.31
2022-08-23T02:27:02.163Z,100133.41
2022-08-23T02:29:30.956Z,100131.44
2022-08-23T02:32:02.360Z,100138.38
2022-08-23T02:34:30.516Z,100137.31
2022-08-23T02:36:57.959Z,100141.59
2022-08-23T02:39:25.430Z,100144.06
2022-08-23T02:41:52.620Z,100143.09
2022-08-23T02:44:20.727Z,100142.09
2022-08-23T02:46:48.497Z,100135.09
2022-08-23T02:49:16.550Z,100136.72
2022-08-23T02:51:43.978Z,100133.22
2022-08-23T02:54:11.006Z,100133.22
2022-08-23T02:56:38.339Z,100130.47
2022-08-23T02:59:06.825Z,100130.53
2022-08-23T03:01:36.917Z,100129.63
2022-08-23T03:04:19.768Z,100137.47
2022-08-23T03:06:46.890Z,100137.53
2022-08-23T03:09:14.068Z,100130.75
2022-08-23T03:11:45.687Z,100134.25
2022-08-23T03:14:13.707Z,100137.66
2022-08-23T03:16:42.610Z,100140.38
2022-08-23T03:19:09.727Z,100146.34
2022-08-23T03:21:37.606Z,100144.47
2022-08-23T03:24:10.018Z,100140.00
2022-08-23T03:26:37.698Z,100138.91
2022-08-23T03:29:05.184Z,100136.22
2022-08-23T03:31:43.188Z,100140.53
2022-08-23T03:34:12.438Z,100144.88
2022-08-23T03:36:39.488Z,100147.41
2022-08-23T03:39:07.902Z,100149.91
2022-08-23T03:41:34.889Z,100149.91
2022-08-23T03:44:01.990Z,100157.81
2022-08-23T03:46:34.169Z,100163.91
2022-08-23T03:49:03.478Z,100155.84
2022-08-23T03:51:41.379Z,100157.44
2022-08-23T03:54:09.607Z,100164.25
2022-08-23T03:56:40.122Z,100155.34
2022-08-23T03:59:11.070Z,100152.47
2022-08-23T04:01:38.043Z,100148.03
2022-08-23T04:04:05.488Z,100158.50
2022-08-23T04:06:34.097Z,100153.94
2022-08-23T04:09:01.072Z,100154.78
2022-08-23T04:11:28.398Z,100152.84
2022-08-23T04:14:04.058Z,100150.28
2022-08-23T04:16:33.485Z,100135.25
2022-08-23T04:19:00.995Z,100140.28
2022-08-23T04:21:31.338Z,100136.75
2022-08-23T04:23:59.869Z,100149.69
2022-08-23T04:26:30.149Z,100149.47
2022-08-23T04:28:57.648Z,100153.69
2022-08-23T04:31:26.659Z,100159.97
2022-08-23T04:33:56.511Z,100153.69
2022-08-23T04:36:24.199Z,100149.13
2022-08-23T04:38:52.487Z,100144.50
2022-08-23T04:41:38.129Z,100141.69
2022-08-23T04:44:05.776Z,100148.72
2022-08-23T04:46:34.435Z,100152.34
2022-08-23T04:49:03.721Z,100156.00
2022-08-23T04:51:31.455Z,100152.06
2022-08-23T04:53:59.481Z,100160.66
2022-08-23T04:56:38.979Z,100166.84
2022-08-23T04:59:08.092Z,100160.75
2022-08-23T05:01:43.003Z,100164.56
2022-08-23T05:04:10.793Z,100164.78
2022-08-23T05:06:39.917Z,100151.56
2022-08-23T05:09:07.115Z,100150.72
2022-08-23T05:11:35.954Z,100159.78
2022-08-23T05:14:03.655Z,100152.41
2022-08-23T05:16:30.825Z,100147.97
2022-08-23T05:19:03.606Z,100150.09
2022-08-23T05:21:33.365Z,100147.00
2022-08-23T05:26:31.491Z,100148.25
2022-08-23T05:28:58.676Z,100146.38
2022-08-23T05:31:32.192Z,100157.03
2022-08-23T05:34:02.202Z,100157.16
2022-08-23T05:36:48.296Z,100164.16
2022-08-23T05:39:25.701Z,100160.22
2022-08-23T05:42:00.145Z,100160.41
2022-08-23T05:44:27.087Z,100172.03
2022-08-23T05:49:27.795Z,100160.31
2022-08-23T05:51:55.176Z,100164.38
2022-08-23T05:54:24.975Z,100166.97
2022-08-23T05:57:18.152Z,100155.97
2022-08-23T05:59:45.197Z,100161.59
2022-08-23T06:02:12.165Z,100149.88
2022-08-23T06:04:39.746Z,100164.28
2022-08-23T06:07:06.751Z,100165.94
2022-08-23T06:09:33.874Z,100163.66
2022-08-23T06:12:01.396Z,100164.16
2022-08-23T06:14:29.032Z,100172.66
2022-08-23T06:16:56.544Z,100167.44
2022-08-23T06:19:27.185Z,100160.88
2022-08-23T06:22:00.036Z,100171.44
2022-08-23T06:24:34.011Z,100174.94
2022-08-23T06:27:21.589Z,100178.25
2022-08-23T06:29:49.774Z,100171.63
2022-08-23T06:32:35.245Z,100174.34
2022-08-23T06:35:39.452Z,100180.84
2022-08-23T06:38:13.295Z,100182.63
2022-08-23T06:41:11.746Z,100181.13
2022-08-23T06:43:50.534Z,100185.53
2022-08-23T06:46:33.191Z,100185.03
2022-08-23T06:49:00.930Z,100182.16
2022-08-23T06:51:30.827Z,100178.66
2022-08-23T06:54:26.696Z,100189.63
2022-08-23T06:57:13.065Z,100190.75
2022-08-23T06:59:58.386Z,100197.22
2022-08-23T07:02:45.701Z,100200.53
2022-08-23T07:05:35.696Z,100193.72
2022-08-23T07:08:14.943Z,100202.00
2022-08-23T07:10:42.804Z,100202.34
2022-08-23T07:13:09.881Z,100206.56
2022-08-23T07:15:36.916Z,100191.91
2022-08-23T07:18:05.742Z,100212.25
2022-08-23T07:20:36.605Z,100206.47
2022-08-23T07:23:03.678Z,100208.28
2022-08-23T07:25:31.146Z,100206.28
2022-08-23T07:28:02.387Z,100207.88
2022-08-23T07:30:29.725Z,100205.63
2022-08-23T07:32:56.925Z,100210.81
2022-08-23T07:35:27.117Z,100210.81
2022-08-23T07:37:57.653Z,100213.97
2022-08-23T07:40:30.051Z,100216.91
2022-08-23T07:43:03.306Z,100224.31
2022-08-23T07:45:31.234Z,100218.63
2022-08-23T07:48:02.505Z,100228.84
2022-08-23T07:50:35.115Z,100220.13
2022-08-23T07:53:04.430Z,100212.84
2022-08-23T07:55:31.847Z,100206.16
2022-08-23T07:58:09.215Z,100215.19
2022-08-23T08:00:54.465Z,100218.78
2022-08-23T08:03:43.996Z,100217.75
2022-08-23T08:06:35.665Z,100223.66
2022-08-23T08:09:04.316Z,100217.94
2022-08-23T08:11:35.291Z,100227.19
2022-08-23T08:14:09.535Z,100225.25
2022-08-23T08:16:45.625Z,100232.56
2022-08-23T08:19:19.895Z,100236.78
2022-08-23T08:22:05.316Z,100237.63
2022-08-23T08:24:50.735Z,100235.53
2022-08-23T08:27:18.568Z,100231.78
2022-08-23T08:29:45.675Z,100245.28
2022-08-23T08:32:14.071Z,100241.84
2022-08-23T08:34:42.256Z,100247.06
2022-08-23T08:37:10.915Z,100241.84
2022-08-23T08:39:45.586Z,100235.97
2022-08-23T08:42:35.725Z,100243.09
2022-08-23T08:45:07.946Z,100238.09
2022-08-23T08:48:13.546Z,100225.06
2022-08-23T08:50:54.919Z,100227.88
2022-08-23T08:53:26.437Z,100228.59
2022-08-23T08:56:25.186Z,100223.22
2022-08-23T08:59:25.806Z,100217.31
2022-08-23T09:01:53.014Z,100222.22
2022-08-23T09:04:30.015Z,100213.88
2022-08-23T09:07:13.236Z,100218.72
2022-08-23T09:09:46.811Z,100218.72
2022-08-23T09:12:24.316Z,100214.69
2022-08-23T09:15:14.327Z,100217.91
2022-08-23T09:17:47.710Z,100215.66
2022-08-23T09:20:16.556Z,100214.09
2022-08-23T09:22:54.925Z,100219.34
2022-08-23T09:25:28.228Z,100226.25
2022-08-23T09:28:14.285Z,100217.00
2022-08-23T09:30:52.945Z,100216.84
2022-08-23T09:33:26.487Z,100222.25
2022-08-23T09:36:08.400Z,100232.44
2022-08-23T09:38:39.579Z,100236.88
2022-08-23T09:41:19.322Z,100237.84
2022-08-23T09:43:50.511Z,100232.63
2022-08-23T09:46:28.947Z,100239.19
2022-08-23T09:49:01.666Z,100238.78
2022-08-23T09:51:35.293Z,100239.38
2022-08-23T09:54:31.497Z,100249.41
2022-08-23T09:57:10.315Z,100246.75
2022-08-23T09:59:46.484Z,100251.41
2022-08-23T10:02:27.192Z,100246.03
2022-08-23T10:04:58.045Z,100239.78
2022-08-23T10:07:42.332Z,100251.75
2022-08-23T10:10:33.417Z,100238.13
2022-08-23T10:13:05.203Z,100244.19
2022-08-23T10:15:56.450Z,100232.06
2022-08-23T10:18:51.585Z,100244.16
2022-08-23T10:21:40.995Z,100233.72
2022-08-23T10:24:14.318Z,100248.16
2022-08-23T10:27:37.411Z,100230.31
2022-08-23T10:30:09.041Z,100241.50
2022-08-23T10:33:04.157Z,100240.34
2022-08-23T10:35:47.515Z,100219.16
2022-08-23T10:38:38.046Z,100244.34
2022-08-23T10:41:33.773Z,100237.69
2022-08-23T10:44:24.493Z,100238.69
2022-08-23T10:47:18.016Z,100239.63
2022-08-23T10:49:49.264Z,100240.41
2022-08-23T10:52:21.610Z,100236.78
2022-08-23T10:55:01.884Z,100236.09
2022-08-23T10:57:37.725Z,100237.78
2022-08-23T11:00:13.147Z,100237.84
2022-08-23T11:03:11.037Z,100200.84
2022-08-23T11:05:39.211Z,100231.94
2022-08-23T11:08:36.122Z,100230.81
2022-08-23T11:11:46.093Z,100222.50
2022-08-23T11:14:34.491Z,100227.44
2022-08-23T11:17:05.114Z,100221.88
2022-08-23T11:19:56.115Z,100223.97
2022-08-23T11:22:28.089Z,100209.78
2022-08-23T11:25:26.088Z,100218.03
2022-08-23T11:28:30.669Z,100225.66
2022-08-23T11:31:37.803Z,100217.28
2022-08-23T11:34:09.533Z,100225.34
2022-08-23T11:36:37.073Z,100220.69
2022-08-23T11:39:11.227Z,100210.31
2022-08-23T11:41:56.867Z,100221.94
2022-08-23T11:44:38.325Z,100215.53
2022-08-23T11:47:08.753Z,100213.97
2022-08-23T11:49:59.975Z,100223.56
2022-08-23T11:52:53.693Z,100218.00
2022-08-23T11:55:39.692Z,100221.47
2022-08-23T11:58:23.732Z,100225.66
2022-08-23T12:00:59.583Z,100217.81
2022-08-23T12:03:36.958Z,100226.69
2022-08-23T12:06:14.704Z,100221.03
2022-08-23T12:08:55.755Z,100230.09
2022-08-23T12:11:26.192Z,100229.84
2022-08-23T12:13:55.839Z,100213.28
2022-08-23T12:16:24.230Z,100226.63
2022-08-23T12:18:54.130Z,100213.56
2022-08-23T12:21:28.424Z,100218.66
2022-08-23T12:24:01.357Z,100227.81
2022-08-23T12:26:35.261Z,100226.72
2022-08-23T12:29:39.833Z,100222.03
2022-08-23T12:32:25.095Z,100228.38
2022-08-23T12:35:15.863Z,100225.50
2022-08-23T12:37:54.312Z,100206.91
2022-08-23T12:40:33.564Z,100217.97
2022-08-23T12:43:08.664Z,100222.88
2022-08-23T12:45:42.422Z,100220.72
2022-08-23T12:48:12.796Z,100221.75
2022-08-23T12:50:43.766Z,100218.47
2022-08-23T12:53:14.953Z,100224.66
2022-08-23T12:55:50.633Z,100210.69
2022-08-23T12:58:31.497Z,100214.41
2022-08-23T13:01:04.396Z,100220.34
2022-08-23T13:03:46.554Z,100221.44
2022-08-23T13:06:16.616Z,100211.13
2022-08-23T13:08:54.394Z,100204.81
2022-08-23T13:11:23.441Z,100212.28
2022-08-23T13:13:50.400Z,100216.81
2022-08-23T13:16:33.742Z,100206.88
2022-08-23T13:19:27.063Z,100212.31
2022-08-23T13:22:22.329Z,100213.72
2022-08-23T13:27:59.031Z,100211.50
2022-08-23T13:30:29.804Z,100203.34
2022-08-23T13:33:09.054Z,100224.34
2022-08-23T13:35:46.951Z,100222.16
2022-08-23T13:38:22.021Z,100212.59
2022-08-23T13:41:02.289Z,100214.09
2022-08-23T13:43:44.123Z,100211.34
2022-08-23T13:46:29.973Z,100193.41
2022-08-23T13:49:04.567Z,100196.47
2022-08-23T13:51:42.683Z,100205.69
2022-08-23T13:54:14.937Z,100203.16
2022-08-23T13:56:47.961Z,100196.75
2022-08-23T13:59:51.049Z,100203.22
2022-08-23T14:02:20.012Z,100208.25
2022-08-23T14:04:47.500Z,100206.03
2022-08-23T14:07:15.266Z,100211.53
2022-08-23T14:09:43.064Z,100217.53
2022-08-23T14:12:19.492Z,100223.25
2022-08-23T14:14:46.873Z,100216.22
2022-08-23T14:17:16.722Z,100214.03
2022-08-23T14:22:34.663Z,100211.59
2022-08-23T14:25:01.699Z,100212.91
2022-08-23T14:27:29.112Z,100206.72
2022-08-23T14:29:56.199Z,100202.94
2022-08-23T14:32:23.121Z,100207.88
2022-08-23T14:34:50.482Z,100206.09
2022-08-23T14:40:04.943Z,100203.53
2022-08-23T14:42:32.253Z,100203.03
2022-08-23T14:44:59.271Z,100208.69
2022-08-23T14:47:26.957Z,100189.13
2022-08-23T14:49:54.360Z,100200.97
2022-08-23T14:52:22.603Z,100191.34
2022-08-23T14:54:50.138Z,100190.84
2022-08-23T14:57:17.142Z,100188.41
2022-08-23T14:59:44.456Z,100193.34
2022-08-23T15:02:13.850Z,100194.75
2022-08-23T15:04:42.181Z,100208.53
2022-08-23T15:07:18.684Z,100208.63
2022-08-23T15:09:52.255Z,100207.41
2022-08-23T15:15:12.371Z,100206.72
2022-08-23T15:17:48.078Z,100213.94
2022-08-23T15:20:15.441Z,100228.50
2022-08-23T15:22:44.457Z,100224.59
2022-08-23T15:25:13.888Z,100232.47
2022-08-23T15:27:41.812Z,100235.34
2022-08-23T15:30:09.754Z,100236.50
2022-08-23T15:32:36.752Z,100241.91
2022-08-23T15:35:05.320Z,100253.66
2022-08-23T15:37:32.670Z,100255.06
2022-08-23T15:39:59.740Z,100262.47
2022-08-23T15:42:26.998Z,100262.47
2022-08-23T15:44:54.152Z,100269.59
2022-08-23T15:47:35.186Z,100269.88
2022-08-23T15:50:04.814Z,100265.34
2022-08-23T15:52:31.749Z,100263.97
2022-08-23T15:54:58.777Z,100248.31
2022-08-23T15:57:28.120Z,100252.53
2022-08-23T15:59:56.517Z,100250.63
2022-08-23T16:02:23.551Z,100246.69
2022-08-23T16:04:50.659Z,100248.75
2022-08-23T16:07:18.119Z,100247.47
2022-08-23T16:09:45.443Z,100255.56
2022-08-23T16:12:12.502Z,100250.66
2022-08-23T16:14:39.613Z,100250.41
2022-08-23T16:17:08.073Z,100256.88
2022-08-23T16:19:35.062Z,100248.97
2022-08-23T16:22:02.881Z,100245.66
2022-08-23T16:24:30.082Z,100246.91
2022-08-23T16:26:57.421Z,100249.66
2022-08-23T16:29:24.657Z,100258.66
2022-08-23T16:31:52.333Z,100263.94
2022-08-23T16:34:20.433Z,100258.50
2022-08-23T16:36:52.533Z,100262.00
2022-08-23T16:39:22.601Z,100253.81
2022-08-23T16:41:50.119Z,100256.22
2022-08-23T16:44:17.827Z,100249.19
2022-08-23T16:46:44.948Z,100245.00
2022-08-23T16:49:14.227Z,100251.59
2022-08-23T16:51:41.671Z,100258.75
2022-08-23T16:54:08.990Z,100250.19
2022-08-23T16:56:37.533Z,100255.66
2022-08-23T16:59:07.367Z,100259.50
2022-08-23T17:01:54.168Z,100259.50
2022-08-23T17:04:21.929Z,100270.97
2022-08-23T17:06:49.273Z,100267.47
2022-08-23T17:09:16.596Z,100264.00
2022-08-23T17:11:44.181Z,100266.75
2022-08-23T17:14:12.764Z,100261.59
2022-08-23T17:16:41.223Z,100274.88
2022-08-23T17:19:08.490Z,100273.16
2022-08-23T17:21:35.899Z,100270.75
2022-08-23T17:24:03.138Z,100278.88
2022-08-23T17:26:30.359Z,100279.97
2022-08-23T17:28:57.395Z,100289.00
2022-08-23T17:31:24.955Z,100294.50
2022-08-23T17:33:51.932Z,100304.63
2022-08-23T17:36:47.626Z,100308.13
2022-08-23T17:39:18.396Z,100317.22
2022-08-23T17:41:45.831Z,100310.84
2022-08-23T17:44:13.457Z,100328.63
2022-08-23T17:46:43.009Z,100329.06
2022-08-23T17:49:11.074Z,100331.81
2022-08-23T17:51:38.421Z,100349.63
2022-08-23T17:54:05.592Z,100347.75
2022-08-23T17:56:32.517Z,100352.09
2022-08-23T17:59:00.249Z,100360.31
2022-08-23T18:01:27.422Z,100358.72
2022-08-23T18:03:55.359Z,100374.72
2022-08-23T18:06:22.547Z,100395.53
2022-08-23T18:08:50.264Z,100410.34
2022-08-23T18:11:17.728Z,100409.28
2022-08-23T18:13:44.812Z,100408.25
2022-08-23T18:16:13.864Z,100413.00
2022-08-23T18:18:41.117Z,100411.44
2022-08-23T18:21:09.276Z,100407.28
2022-08-23T18:23:36.826Z,100412.72
2022-08-23T18:26:09.099Z,100407.22
2022-08-23T18:28:36.152Z,100404.88
2022-08-23T18:31:03.942Z,100399.19
2022-08-23T18:33:46.405Z,100358.22
2022-08-23T18:36:16.346Z,100351.13
2022-08-23T18:38:43.877Z,100347.72
2022-08-23T18:41:13.548Z,100335.38
2022-08-23T18:43:40.932Z,100327.47
2022-08-23T18:46:09.301Z,100328.19
2022-08-23T18:48:36.472Z,100322.19
2022-08-23T18:51:04.272Z,100313.63
2022-08-23T18:53:31.976Z,100313.47
2022-08-23T18:55:59.242Z,100305.44
2022-08-23T18:58:29.916Z,100306.47
2022-08-23T19:00:57.702Z,100309.88
2022-08-23T19:03:25.834Z,100316.13
2022-08-23T19:05:53.220Z,100322.19
2022-08-23T19:08:20.542Z,100316.88
2022-08-23T19:10:48.429Z,100323.94
2022-08-23T19:13:16.758Z,100316.88
2022-08-23T19:15:44.793Z,100319.63
2022-08-23T19:18:12.000Z,100316.19
2022-08-23T19:20:39.325Z,100325.13
2022-08-23T19:23:06.697Z,100312.84
2022-08-23T19:25:37.043Z,100298.81
2022-08-23T19:28:04.978Z,100305.06
2022-08-23T19:30:32.428Z,100299.88
2022-08-23T19:33:00.548Z,100299.94
2022-08-23T19:35:30.196Z,100305.22
2022-08-23T19:37:58.344Z,100316.75
2022-08-23T19:40:25.706Z,100317.81
2022-08-23T19:42:52.889Z,100329.28
2022-08-23T19:45:20.336Z,100337.13
2022-08-23T19:47:48.270Z,100334.56
2022-08-23T19:50:24.307Z,100337.22
2022-08-23T19:52:57.352Z,100335.34
2022-08-23T19:55:29.077Z,100341.66
2022-08-23T19:57:58.632Z,100343.44
2022-08-23T20:00:33.103Z,100354.25
2022-08-23T20:03:01.869Z,100361.97
2022-08-23T20:05:29.849Z,100367.97
2022-08-23T20:07:56.804Z,100369.66
2022-08-23T20:10:23.853Z,100368.72
2022-08-23T20:12:50.883Z,100369.72
2022-08-23T20:15:17.978Z,100372.41
2022-08-23T20:17:46.816Z,100368.81
2022-08-23T20:20:13.979Z,100370.03
2022-08-23T20:22:59.737Z,100368.41
2022-08-23T20:25:26.919Z,100357.66
2022-08-23T20:27:53.884Z,100355.97
2022-08-23T20:30:20.959Z,100356.16
2022-08-23T20:32:48.064Z,100350.19
2022-08-23T20:35:15.037Z,100341.28
2022-08-23T20:37:42.094Z,100340.44
2022-08-23T20:40:14.910Z,100345.09
2022-08-23T20:42:42.024Z,100349.28
2022-08-23T20:45:09.573Z,100338.69
2022-08-23T20:47:36.660Z,100351.03
2022-08-23T20:50:04.250Z,100359.09
2022-08-23T20:52:34.552Z,100359.09
2022-08-23T20:55:02.680Z,100367.69
2022-08-23T20:57:36.787Z,100369.31
2022-08-23T21:00:07.759Z,100366.41
2022-08-23T21:02:35.075Z,100368.72
2022-08-23T21:05:04.700Z,100356.34
2022-08-23T21:07:33.690Z,100360.50
2022-08-23T21:10:00.895Z,100353.34
2022-08-23T21:12:27.935Z,100362.16
2022-08-23T21:14:56.832Z,100359.44
2022-08-23T21:17:23.889Z,100366.34
2022-08-23T21:19:50.995Z,100364.72
2022-08-23T21:22:18.073Z,100362.16
2022-08-23T21:24:45.071Z,100351.47
2022-08-23T21:27:12.072Z,100355.06
2022-08-23T21:29:39.377Z,100352.53
2022-08-23T21:32:07.253Z,100348.31
2022-08-23T21:34:34.331Z,100347.66
2022-08-23T21:37:01.494Z,100340.72
2022-08-23T21:39:28.640Z,100341.72
2022-08-23T21:41:56.239Z,100339.22
2022-08-23T21:44:25.814Z,100340.28
2022-08-23T21:46:52.911Z,100339.59
2022-08-23T21:49:21.103Z,100334.41
2022-08-23T21:51:49.181Z,100339.78
2022-08-23T21:54:17.819Z,100346.88
2022-08-23T21:56:45.876Z,100342.50
2022-08-23T21:59:16.711Z,100344.28
2022-08-23T22:01:44.871Z,100348.66
2022-08-23T22:04:13.979Z,100351.25
2022-08-23T22:06:43.240Z,100352.16
2022-08-23T22:09:13.647Z,100357.31
2022-08-23T22:11:42.716Z,100356.31
2022-08-23T22:14:11.821Z,100353.59
2022-08-23T22:16:41.076Z,100352.66
2022-08-23T22:19:08.187Z,100357.97
2022-08-23T22:21:35.823Z,100352.81
2022-08-23T22:24:03.099Z,100348.44
2022-08-23T22:26:30.679Z,100352.88
2022-08-23T22:28:57.657Z,100350.31
2022-08-23T22:31:24.991Z,100351.25
2022-08-23T22:33:52.914Z,100355.69
2022-08-23T22:36:22.433Z,100354.81
2022-08-23T22:38:51.020Z,100348.72
2022-08-23T22:41:19.490Z,100343.59
2022-08-23T22:43:47.003Z,100356.81
2022-08-23T22:46:14.101Z,100343.78
2022-08-23T22:48:41.575Z,100350.22
2022-08-23T22:51:13.342Z,100349.69
2022-08-23T22:53:42.951Z,100342.13
2022-08-23T22:56:12.733Z,100340.59
2022-08-23T22:58:42.455Z,100345.25
2022-08-23T23:01:13.372Z,100342.88
2022-08-23T23:03:41.955Z,100337.84
2022-08-23T23:06:09.614Z,100345.06
2022-08-23T23:08:37.095Z,100345.16
2022-08-23T23:11:06.549Z,100343.53
2022-08-23T23:13:34.451Z,100348.00
2022-08-23T23:16:06.842Z,100342.72
2022-08-23T23:18:34.713Z,100345.41
2022-08-23T23:21:05.056Z,100342.84
2022-08-23T23:23:34.521Z,100348.19
2022-08-23T23:26:04.378Z,100347.38
2022-08-23T23:28:32.117Z,100352.81
2022-08-23T23:30:59.632Z,100354.66
2022-08-23T23:33:27.490Z,100358.31
2022-08-23T23:35:54.592Z,100356.66
2022-08-23T23:38:21.761Z,100355.00
2022-08-23T23:40:48.759Z,100356.00
2022-08-23T23:43:16.371Z,100346.41
2022-08-23T23:45:43.436Z,100353.53
2022-08-23T23:48:10.703Z,100354.53
2022-08-23T23:50:45.041Z,100346.78
2022-08-23T23:53:14.959Z,100348.63
2022-08-23T23:55:43.060Z,100350.41
2022-08-23T23:58:10.563Z,100348.75
